Time;durP1;ratioP1;P1;durP2;ratioP2;P2;SDS_P1;SDS_P2;PMS_P1;PMS_P2;Temp;Humidity;BMP_temperature;BMP_pressure;BME280_temperature;BME280_humidity;BME280_pressure;Samples;Min_cycle;Max_cycle;Signal;HPM_P1;HPM_P2
2021/07/04 00:00:12;;;;;;;57.72;36.50;;;17.00;99.90;;;;;;4164283;28;20484;-84
2021/07/04 00:02:13;;;;;;;58.08;37.70;;;17.00;99.90;;;;;;4164652;28;20048;-83
2021/07/04 00:04:14;;;;;;;63.58;37.58;;;16.90;99.90;;;;;;4163925;28;20029;-82
2021/07/04 00:06:16;;;;;;;60.67;37.80;;;17.00;99.90;;;;;;4163991;28;20033;-83
2021/07/04 00:08:21;;;;;;;61.75;38.90;;;17.00;99.90;;;;;;4164192;28;20033;-83
2021/07/04 00:10:31;;;;;;;63.92;36.97;;;17.00;99.90;;;;;;4163254;28;20214;-83
2021/07/04 00:12:32;;;;;;;69.35;39.80;;;17.10;99.90;;;;;;4164965;28;20029;-83
2021/07/04 00:14:38;;;;;;;64.68;40.17;;;17.00;99.90;;;;;;4163567;28;20040;-82
2021/07/04 00:16:40;;;;;;;67.72;38.88;;;17.10;99.90;;;;;;4179850;28;20061;-82
2021/07/04 00:18:49;;;;;;;64.57;41.53;;;17.10;99.90;;;;;;4179914;28;20373;-83
2021/07/04 00:20:51;;;;;;;68.70;40.25;;;17.10;99.90;;;;;;4163922;28;20574;-84
2021/07/04 00:22:54;;;;;;;65.85;40.03;;;17.10;99.90;;;;;;4165956;28;20044;-83
2021/07/04 00:24:55;;;;;;;66.93;39.42;;;17.20;99.90;;;;;;4163338;28;20540;-83
2021/07/04 00:26:55;;;;;;;66.38;39.70;;;17.10;99.90;;;;;;4163049;28;20095;-83
2021/07/04 00:28:59;;;;;;;68.60;40.50;;;17.10;99.90;;;;;;4163390;28;20033;-82
2021/07/04 00:31:00;;;;;;;74.25;41.20;;;17.00;99.90;;;;;;4164637;28;20038;-84
2021/07/04 00:33:04;;;;;;;69.90;39.75;;;17.10;99.90;;;;;;4164157;28;20484;-84
2021/07/04 00:35:06;;;;;;;59.30;38.40;;;17.00;99.90;;;;;;4162792;28;20033;-83
2021/07/04 00:37:07;;;;;;;63.05;36.92;;;17.00;99.90;;;;;;4164085;28;20028;-83
2021/07/04 00:39:11;;;;;;;61.63;37.58;;;17.00;99.90;;;;;;4164457;28;20033;-82
2021/07/04 00:41:12;;;;;;;68.30;37.80;;;17.00;99.90;;;;;;4164318;28;20082;-84
2021/07/04 00:43:15;;;;;;;54.33;36.17;;;16.90;99.90;;;;;;4163280;28;20504;-84
2021/07/04 00:45:21;;;;;;;56.88;35.70;;;16.90;99.90;;;;;;4163412;28;20480;-84
2021/07/04 00:47:27;;;;;;;62.38;38.75;;;16.90;99.90;;;;;;4163062;28;20068;-83
2021/07/04 00:49:29;;;;;;;56.55;36.78;;;16.90;99.90;;;;;;4164056;28;20116;-85
2021/07/04 00:51:30;;;;;;;53.05;33.72;;;16.80;99.90;;;;;;4160050;28;20107;-83
2021/07/04 00:53:31;;;;;;;59.00;33.30;;;16.80;99.90;;;;;;4157112;28;20499;-82
2021/07/04 00:55:33;;;;;;;50.03;33.08;;;16.80;99.90;;;;;;4162450;28;20037;-83
2021/07/04 00:57:34;;;;;;;51.40;31.90;;;16.80;99.90;;;;;;4161371;28;20038;-83
2021/07/04 00:59:35;;;;;;;51.25;31.73;;;16.80;99.90;;;;;;4163378;28;20098;-83
2021/07/04 01:01:37;;;;;;;50.95;31.08;;;16.80;99.90;;;;;;4161986;28;20124;-82
2021/07/04 01:03:39;;;;;;;48.33;31.10;;;16.80;99.90;;;;;;4162508;28;20032;-83
2021/07/04 01:05:42;;;;;;;46.95;28.95;;;16.70;99.90;;;;;;4162483;28;20111;-83
2021/07/04 01:07:46;;;;;;;43.50;27.92;;;16.70;99.90;;;;;;4178376;28;20032;-84
2021/07/04 01:09:48;;;;;;;44.65;26.98;;;16.70;99.90;;;;;;4162707;28;20529;-83
2021/07/04 01:11:50;;;;;;;39.72;26.05;;;16.70;99.90;;;;;;4161881;28;20124;-85
2021/07/04 01:13:51;;;;;;;42.38;27.98;;;16.70;99.90;;;;;;4164077;28;20029;-85
2021/07/04 01:15:52;;;;;;;41.03;28.10;;;16.70;99.90;;;;;;4162751;28;20040;-84
2021/07/04 01:17:58;;;;;;;38.60;26.73;;;16.70;99.90;;;;;;4162226;28;20026;-83
2021/07/04 01:19:59;;;;;;;38.90;25.90;;;16.70;99.90;;;;;;4162202;28;20427;-84
2021/07/04 01:22:01;;;;;;;39.60;26.08;;;16.60;99.90;;;;;;4154243;28;20060;-83
2021/07/04 01:24:03;;;;;;;36.05;25.02;;;16.60;99.90;;;;;;4178616;28;20513;-83
2021/07/04 01:26:05;;;;;;;40.50;24.52;;;16.50;99.90;;;;;;4162014;28;20038;-83
2021/07/04 01:28:08;;;;;;;34.40;24.88;;;16.50;99.90;;;;;;4162013;28;20033;-81
2021/07/04 01:30:10;;;;;;;36.38;25.17;;;16.40;99.90;;;;;;4163333;28;20052;-83
2021/07/04 01:32:11;;;;;;;36.00;23.38;;;16.40;99.90;;;;;;4164146;28;20045;-83
2021/07/04 01:34:13;;;;;;;36.80;24.48;;;16.30;99.90;;;;;;4162183;28;20025;-83
2021/07/04 01:36:14;;;;;;;41.80;25.65;;;16.30;99.90;;;;;;4161948;28;20702;-84
2021/07/04 01:38:15;;;;;;;38.60;24.85;;;16.20;99.90;;;;;;4162241;28;20059;-83
2021/07/04 01:40:18;;;;;;;40.22;25.15;;;16.20;99.90;;;;;;4161930;28;20362;-84
2021/07/04 01:42:19;;;;;;;48.42;26.70;;;16.10;99.90;;;;;;4158250;28;20535;-83
2021/07/04 01:44:20;;;;;;;40.88;25.30;;;16.10;99.90;;;;;;4162102;28;20021;-83
2021/07/04 01:46:23;;;;;;;44.90;26.52;;;16.10;99.90;;;;;;4162557;28;20045;-84
2021/07/04 01:48:24;;;;;;;38.95;25.73;;;16.10;99.90;;;;;;4145809;28;20026;-83
2021/07/04 01:50:30;;;;;;;42.42;27.60;;;16.20;99.90;;;;;;4163168;28;20038;-82
2021/07/04 01:52:31;;;;;;;36.40;25.33;;;16.20;99.90;;;;;;4158945;28;20044;-84
2021/07/04 01:54:32;;;;;;;41.50;25.63;;;16.20;99.90;;;;;;4159996;28;20470;-84
2021/07/04 01:56:35;;;;;;;39.58;26.50;;;16.20;99.90;;;;;;4162140;28;20160;-83
2021/07/04 01:58:38;;;;;;;46.30;26.13;;;16.20;99.90;;;;;;4162204;28;20034;-83
2021/07/04 02:00:40;;;;;;;42.65;24.60;;;16.20;99.90;;;;;;4162464;28;20501;-84
2021/07/04 02:02:43;;;;;;;43.05;25.80;;;16.20;99.90;;;;;;4165815;28;20029;-83
2021/07/04 02:04:43;;;;;;;;;;;16.10;99.90;;;;;;4167668;28;20111;-84
2021/07/04 02:06:50;;;;;;;46.42;26.33;;;16.10;99.90;;;;;;4165629;28;19913;-83
2021/07/04 02:08:50;;;;;;;39.13;24.88;;;16.00;99.90;;;;;;4166763;28;20041;-82
2021/07/04 02:10:52;;;;;;;39.58;24.63;;;15.90;99.90;;;;;;4165019;28;20440;-83
2021/07/04 02:13:00;;;;;;;42.83;24.80;;;15.90;99.90;;;;;;4173243;28;20489;-84
2021/07/04 02:15:07;;;;;;;39.15;25.50;;;15.90;99.90;;;;;;4163691;28;20423;-84
2021/07/04 02:17:07;;;;;;;43.90;26.90;;;15.80;99.90;;;;;;4163186;28;20038;-84
2021/07/04 02:19:08;;;;;;;39.78;23.42;;;15.80;99.90;;;;;;4162820;28;20045;-84
2021/07/04 02:21:14;;;;;;;37.35;22.23;;;15.70;99.90;;;;;;4164468;28;20128;-84
2021/07/04 02:23:24;;;;;;;38.85;24.63;;;15.70;99.90;;;;;;4178330;28;20424;-83
2021/07/04 02:25:24;;;;;;;47.05;26.80;;;15.70;99.90;;;;;;4160891;28;20543;-84
2021/07/04 02:27:28;;;;;;;45.78;25.67;;;15.70;99.90;;;;;;4165196;28;20033;-84
2021/07/04 02:29:29;;;;;;;45.28;25.23;;;15.70;99.90;;;;;;4164626;28;20033;-84
2021/07/04 02:31:31;;;;;;;41.13;25.90;;;15.70;99.90;;;;;;4166081;28;20577;-83
2021/07/04 02:33:32;;;;;;;44.75;25.05;;;15.60;99.90;;;;;;4178881;28;20127;-84
2021/07/04 02:35:37;;;;;;;43.90;27.08;;;15.70;99.90;;;;;;4161560;28;20029;-83
2021/07/04 02:37:38;;;;;;;43.25;25.00;;;15.80;99.90;;;;;;4164887;28;20484;-84
2021/07/04 02:39:39;;;;;;;47.30;28.98;;;15.80;99.90;;;;;;4164903;28;20033;-84
2021/07/04 02:41:42;;;;;;;53.22;30.17;;;15.90;99.90;;;;;;4164470;28;20064;-85
2021/07/04 02:43:42;;;;;;;48.45;28.63;;;16.00;99.90;;;;;;4163286;28;20419;-84
2021/07/04 02:45:45;;;;;;;50.58;30.45;;;16.00;99.90;;;;;;4163944;28;20049;-83
2021/07/04 02:47:47;;;;;;;55.47;30.07;;;16.10;99.90;;;;;;4165835;28;20030;-82
2021/07/04 02:49:48;;;;;;;55.58;30.52;;;16.10;99.90;;;;;;4164786;28;20534;-85
2021/07/04 02:51:49;;;;;;;55.15;30.63;;;16.20;99.90;;;;;;4164906;28;20034;-84
2021/07/04 02:53:49;;;;;;;52.20;32.13;;;16.20;99.90;;;;;;4166361;28;20086;-84
2021/07/04 02:55:50;;;;;;;51.88;29.88;;;16.30;99.90;;;;;;4166421;28;20034;-85
2021/07/04 02:57:51;;;;;;;54.67;31.95;;;16.30;99.90;;;;;;4165977;28;20091;-84
2021/07/04 02:59:52;;;;;;;52.78;31.52;;;16.30;99.90;;;;;;4165330;28;20103;-84
2021/07/04 03:01:53;;;;;;;57.13;32.05;;;16.40;99.90;;;;;;4164987;28;20113;-84
2021/07/04 03:03:53;;;;;;;57.97;31.10;;;16.40;99.90;;;;;;4162990;28;20045;-84
2021/07/04 03:05:54;;;;;;;52.00;30.95;;;16.40;99.90;;;;;;4165866;28;20357;-84
2021/07/04 03:07:55;;;;;;;51.17;29.58;;;16.40;99.90;;;;;;4165843;28;20535;-85
2021/07/04 03:09:57;;;;;;;50.75;31.20;;;16.40;99.90;;;;;;4165779;28;20416;-86
2021/07/04 03:11:59;;;;;;;52.08;29.65;;;16.40;99.90;;;;;;4166475;28;20113;-85
2021/07/04 03:14:00;;;;;;;52.53;30.45;;;16.40;99.90;;;;;;4162235;28;20049;-86
2021/07/04 03:16:04;;;;;;;56.55;31.95;;;16.40;99.90;;;;;;4163185;28;20037;-85
2021/07/04 03:18:05;;;;;;;53.78;29.73;;;16.40;99.90;;;;;;4164282;28;20056;-85
2021/07/04 03:20:09;;;;;;;54.25;30.25;;;16.50;99.90;;;;;;4164962;28;20037;-84
2021/07/04 03:22:09;;;;;;;48.55;29.10;;;16.50;99.90;;;;;;4163117;28;20057;-85
2021/07/04 03:24:17;;;;;;;49.78;30.35;;;16.50;99.90;;;;;;4162358;28;20396;-86
2021/07/04 03:26:20;;;;;;;51.28;29.38;;;16.50;99.90;;;;;;4164472;28;20034;-85
2021/07/04 03:28:22;;;;;;;53.45;29.92;;;16.50;99.90;;;;;;4162552;28;20132;-86
2021/07/04 03:30:23;;;;;;;47.00;29.85;;;16.50;99.90;;;;;;4164326;28;20028;-86
2021/07/04 03:32:24;;;;;;;48.92;30.65;;;16.50;99.90;;;;;;4161377;28;20037;-85
2021/07/04 03:34:25;;;;;;;50.20;29.95;;;16.50;99.90;;;;;;4176296;28;20121;-85
2021/07/04 03:36:31;;;;;;;48.53;29.30;;;16.50;99.90;;;;;;4164361;28;20638;-83
2021/07/04 03:38:32;;;;;;;54.08;30.20;;;16.50;99.90;;;;;;4163500;28;20037;-83
2021/07/04 03:40:33;;;;;;;52.28;31.10;;;16.60;99.90;;;;;;4165362;28;20049;-85
2021/07/04 03:42:35;;;;;;;50.75;30.40;;;16.60;99.90;;;;;;4163752;28;20037;-86
2021/07/04 03:44:38;;;;;;;50.05;29.15;;;16.60;99.90;;;;;;4165759;28;20045;-86
2021/07/04 03:46:40;;;;;;;51.83;29.60;;;16.60;99.90;;;;;;4165356;28;20439;-85
2021/07/04 03:48:42;;;;;;;55.13;32.97;;;16.70;99.90;;;;;;4164968;28;20046;-85
2021/07/04 03:50:42;;;;;;;51.53;31.63;;;16.70;99.90;;;;;;4163845;28;20049;-86
2021/07/04 03:52:46;;;;;;;58.08;33.08;;;16.70;99.90;;;;;;4177366;28;20048;-84
2021/07/04 03:54:47;;;;;;;57.03;32.15;;;16.70;99.90;;;;;;4157233;28;20121;-85
2021/07/04 03:56:50;;;;;;;50.97;31.98;;;16.70;99.90;;;;;;4164024;28;20059;-85
2021/07/04 03:58:56;;;;;;;51.42;33.05;;;16.80;99.90;;;;;;4163757;28;20113;-85
2021/07/04 04:00:58;;;;;;;51.97;30.83;;;16.80;99.90;;;;;;4163442;28;20048;-85
2021/07/04 04:02:59;;;;;;;55.03;32.30;;;16.80;99.90;;;;;;4163898;28;20033;-85
2021/07/04 04:05:00;;;;;;;51.58;31.65;;;16.80;99.90;;;;;;4164865;28;20504;-86
2021/07/04 04:07:00;;;;;;;54.95;32.85;;;16.80;99.90;;;;;;4164018;28;20041;-86
2021/07/04 04:09:02;;;;;;;60.47;32.45;;;16.80;99.90;;;;;;4164370;28;20030;-84
2021/07/04 04:11:04;;;;;;;59.70;33.92;;;16.80;99.90;;;;;;4163076;28;20041;-85
2021/07/04 04:13:06;;;;;;;54.40;32.60;;;16.80;99.90;;;;;;4164868;28;20024;-86
2021/07/04 04:15:08;;;;;;;53.30;32.63;;;16.80;99.90;;;;;;4163417;28;20331;-85
2021/07/04 04:17:17;;;;;;;54.75;31.45;;;16.90;99.90;;;;;;4163894;28;20041;-85
2021/07/04 04:19:18;;;;;;;54.47;32.72;;;17.00;99.90;;;;;;4163466;28;20133;-85
2021/07/04 04:21:24;;;;;;;49.75;32.28;;;17.00;99.90;;;;;;4164941;28;20045;-85
2021/07/04 04:23:27;;;;;;;51.65;31.05;;;17.10;99.90;;;;;;4164201;28;20520;-84
2021/07/04 04:25:27;;;;;;;50.08;31.02;;;17.20;99.90;;;;;;4163832;28;20377;-85
2021/07/04 04:27:28;;;;;;;55.75;33.13;;;17.20;99.90;;;;;;4164663;28;20069;-85
2021/07/04 04:29:29;;;;;;;51.38;32.40;;;17.20;99.90;;;;;;4163457;28;20040;-84
2021/07/04 04:31:30;;;;;;;48.10;31.48;;;17.20;99.90;;;;;;4163178;28;20102;-85
2021/07/04 04:33:32;;;;;;;53.63;33.80;;;17.20;99.90;;;;;;4162928;28;20489;-86
2021/07/04 04:35:33;;;;;;;51.33;33.92;;;17.30;99.90;;;;;;4164377;28;20030;-85
2021/07/04 04:37:39;;;;;;;55.72;33.25;;;17.20;99.90;;;;;;4164402;28;20034;-85
2021/07/04 04:39:40;;;;;;;55.28;32.85;;;17.30;99.90;;;;;;4164515;28;20125;-85
2021/07/04 04:41:42;;;;;;;55.67;33.42;;;17.30;99.90;;;;;;4163262;28;20129;-85
2021/07/04 04:43:43;;;;;;;64.53;35.47;;;17.40;99.90;;;;;;4163284;28;20030;-85
2021/07/04 04:45:44;;;;;;;61.83;35.08;;;17.40;99.90;;;;;;4162462;28;20107;-85
2021/07/04 04:47:44;;;;;;;62.65;36.92;;;17.50;99.90;;;;;;4164281;28;20361;-85
2021/07/04 04:49:45;;;;;;;68.97;37.17;;;17.50;99.90;;;;;;4160975;28;20392;-85
2021/07/04 04:51:45;;;;;;;71.72;37.90;;;17.60;99.90;;;;;;4160287;28;20456;-85
2021/07/04 04:53:46;;;;;;;69.97;37.45;;;17.60;99.90;;;;;;4163067;28;20045;-84
2021/07/04 04:55:47;;;;;;;65.03;38.40;;;17.60;99.90;;;;;;4163904;28;20033;-84
2021/07/04 04:57:47;;;;;;;65.13;39.55;;;17.70;99.90;;;;;;4162905;28;20040;-85
2021/07/04 04:59:49;;;;;;;57.50;35.83;;;17.70;99.90;;;;;;4163190;28;20116;-85
2021/07/04 05:01:50;;;;;;;67.78;40.33;;;17.80;99.90;;;;;;4164216;28;20037;-85
2021/07/04 05:03:50;;;;;;;68.22;39.67;;;17.80;99.90;;;;;;4164513;28;20013;-84
2021/07/04 05:05:51;;;;;;;66.82;38.40;;;17.80;99.90;;;;;;4163910;28;20034;-85
2021/07/04 05:07:52;;;;;;;64.78;38.83;;;17.90;99.90;;;;;;4163880;28;20022;-85
2021/07/04 05:09:52;;;;;;;68.05;40.08;;;17.90;99.90;;;;;;4164131;28;20030;-85
2021/07/04 05:11:54;;;;;;;72.65;43.78;;;18.00;99.90;;;;;;4164515;28;20064;-85
2021/07/04 05:13:56;;;;;;;67.43;41.65;;;18.10;99.90;;;;;;4164133;28;20033;-85
2021/07/04 05:15:57;;;;;;;72.68;44.20;;;18.20;99.90;;;;;;4164006;28;20042;-86
2021/07/04 05:17:57;;;;;;;73.60;44.50;;;18.20;99.90;;;;;;4162316;28;20035;-85
2021/07/04 05:19:58;;;;;;;73.18;43.97;;;18.20;99.90;;;;;;4165493;28;20018;-86
2021/07/04 05:21:59;;;;;;;68.15;44.20;;;18.30;99.90;;;;;;4163018;28;20037;-86
2021/07/04 05:24:00;;;;;;;70.65;47.55;;;18.30;99.90;;;;;;4161882;28;20029;-85
2021/07/04 05:26:01;;;;;;;60.67;45.15;;;18.40;99.90;;;;;;4163087;28;20052;-82
2021/07/04 05:28:02;;;;;;;59.15;43.47;;;18.30;99.90;;;;;;4164190;28;20030;-85
2021/07/04 05:30:05;;;;;;;66.13;46.20;;;18.40;99.90;;;;;;4163781;28;20037;-85
2021/07/04 05:32:06;;;;;;;60.40;42.27;;;18.40;99.90;;;;;;4162560;28;20037;-83
2021/07/04 05:34:06;;;;;;;62.78;43.97;;;18.40;99.90;;;;;;4163348;28;20272;-87
2021/07/04 05:36:09;;;;;;;58.60;44.53;;;18.50;99.90;;;;;;4161211;28;20033;-88
2021/07/04 05:38:19;;;;;;;58.42;42.17;;;18.60;99.90;;;;;;4163824;28;20034;-85
2021/07/04 05:40:20;;;;;;;57.55;42.67;;;18.60;99.90;;;;;;4163581;28;20037;-85
2021/07/04 05:42:23;;;;;;;60.97;44.25;;;18.70;99.90;;;;;;4162167;28;20042;-85
2021/07/04 05:44:24;;;;;;;52.40;42.33;;;18.70;99.90;;;;;;4162195;28;20025;-84
2021/07/04 05:46:25;;;;;;;53.97;41.60;;;18.80;99.90;;;;;;4163456;28;20436;-85
2021/07/04 05:48:27;;;;;;;57.40;43.03;;;19.00;99.90;;;;;;4163442;28;20033;-83
2021/07/04 05:50:27;;;;;;;52.80;39.35;;;19.00;99.90;;;;;;4163126;28;20116;-86
2021/07/04 05:52:30;;;;;;;58.20;44.28;;;19.20;99.90;;;;;;4161948;28;20361;-85
2021/07/04 05:54:31;;;;;;;55.92;41.95;;;19.20;99.90;;;;;;4163036;28;20041;-86
2021/07/04 05:56:32;;;;;;;57.33;43.38;;;19.20;99.90;;;;;;4163555;28;20021;-85
2021/07/04 05:58:34;;;;;;;54.92;40.45;;;19.20;99.90;;;;;;4161697;28;20042;-86
2021/07/04 06:00:35;;;;;;;62.63;43.47;;;19.10;99.90;;;;;;4163317;28;20033;-84
2021/07/04 06:02:37;;;;;;;62.00;42.22;;;19.00;99.90;;;;;;4163442;28;20354;-85
2021/07/04 06:04:39;;;;;;;58.15;43.25;;;18.90;99.90;;;;;;4163668;28;20109;-85
2021/07/04 06:06:42;;;;;;;61.50;42.83;;;18.80;99.90;;;;;;4162415;28;20175;-86
2021/07/04 06:08:44;;;;;;;58.13;41.92;;;18.90;99.90;;;;;;4164042;28;20491;-85
2021/07/04 06:10:51;;;;;;;56.47;40.65;;;19.10;99.90;;;;;;4162584;28;20103;-85
2021/07/04 06:12:54;;;;;;;55.13;39.83;;;19.40;99.90;;;;;;4160230;28;20449;-85
2021/07/04 06:15:01;;;;;;;55.10;40.30;;;19.60;99.90;;;;;;4164450;28;20045;-85
2021/07/04 06:17:02;;;;;;;53.85;39.17;;;19.70;99.90;;;;;;4159012;28;20033;-85
2021/07/04 06:19:04;;;;;;;54.25;39.92;;;19.70;99.90;;;;;;4162291;28;20037;-85
2021/07/04 06:21:06;;;;;;;52.80;39.85;;;19.70;99.90;;;;;;4161414;28;20025;-86
2021/07/04 06:23:08;;;;;;;56.92;40.75;;;19.70;99.90;;;;;;4160919;28;20037;-85
2021/07/04 06:25:18;;;;;;;55.70;39.92;;;19.90;99.90;;;;;;4162487;28;20160;-84
2021/07/04 06:27:20;;;;;;;57.00;40.20;;;20.10;99.90;;;;;;4161448;28;20041;-84
2021/07/04 06:29:21;;;;;;;57.83;40.33;;;20.10;99.90;;;;;;4162819;28;20037;-86
2021/07/04 06:31:24;;;;;;;53.42;38.70;;;20.00;99.90;;;;;;4162762;28;20075;-85
2021/07/04 06:33:25;;;;;;;;;;;20.00;99.90;;;;;;4161250;28;20083;-86
2021/07/04 06:35:29;;;;;;;56.45;42.17;;;19.70;99.90;;;;;;4163020;28;20322;-85
2021/07/04 06:37:30;;;;;;;58.80;41.58;;;19.70;99.90;;;;;;4175638;28;20396;-85
2021/07/04 06:39:32;;;;;;;67.60;42.60;;;19.70;99.90;;;;;;4162886;28;20048;-86
2021/07/04 06:41:32;;;;;;;59.35;41.72;;;19.80;99.90;;;;;;4161751;28;20431;-85
2021/07/04 06:43:41;;;;;;;55.75;41.38;;;19.90;99.90;;;;;;4162797;28;20037;-84
2021/07/04 06:45:42;;;;;;;54.42;39.22;;;20.10;99.90;;;;;;4160789;28;20025;-85
2021/07/04 06:47:50;;;;;;;48.55;38.88;;;20.40;99.90;;;;;;4161942;28;20025;-85
2021/07/04 06:49:50;;;;;;;45.50;38.33;;;20.70;99.90;;;;;;4164235;28;20065;-84
2021/07/04 06:51:57;;;;;;;43.60;35.00;;;21.00;99.90;;;;;;4164357;28;20107;-86
2021/07/04 06:53:58;;;;;;;47.78;35.42;;;21.10;99.90;;;;;;4165292;28;20041;-86
2021/07/04 06:55:59;;;;;;;45.85;36.63;;;21.30;99.90;;;;;;4164377;28;20068;-86
2021/07/04 06:58:10;;;;;;;50.70;39.33;;;21.30;99.90;;;;;;4165875;28;20030;-86
2021/07/04 07:00:15;;;;;;;47.30;38.00;;;21.40;99.90;;;;;;4164157;28;20041;-85
2021/07/04 07:02:16;;;;;;;49.17;38.63;;;21.40;99.90;;;;;;4165225;28;20030;-83
2021/07/04 07:04:16;;;;;;;49.03;37.75;;;21.20;99.90;;;;;;4164400;28;20017;-86
2021/07/04 07:06:25;;;;;;;44.67;36.65;;;21.20;99.90;;;;;;4166208;28;20029;-87
2021/07/04 07:08:26;;;;;;;44.53;38.72;;;21.20;99.90;;;;;;4166018;28;20365;-85
2021/07/04 07:10:30;;;;;;;46.40;37.75;;;21.20;99.90;;;;;;4166016;28;20022;-85
2021/07/04 07:12:32;;;;;;;50.17;38.22;;;21.20;99.90;;;;;;4165713;28;20029;-86
2021/07/04 07:14:33;;;;;;;50.50;37.05;;;21.20;99.90;;;;;;4164647;28;20049;-86
2021/07/04 07:16:39;;;;;;;55.15;41.05;;;21.00;99.90;;;;;;4164763;28;20116;-87
2021/07/04 07:18:42;;;;;;;48.97;38.33;;;20.70;99.90;;;;;;4163797;28;20083;-86
2021/07/04 07:20:42;;;;;;;48.85;38.08;;;20.70;99.90;;;;;;4165554;28;20040;-86
2021/07/04 07:22:44;;;;;;;53.13;40.30;;;20.70;99.90;;;;;;4160386;28;20038;-86
2021/07/04 07:24:47;;;;;;;43.27;34.57;;;20.70;99.90;;;;;;4164673;28;20155;-84
2021/07/04 07:26:53;;;;;;;44.47;36.38;;;21.00;99.90;;;;;;4155371;28;20037;-85
2021/07/04 07:29:00;;;;;;;45.90;37.15;;;21.20;99.90;;;;;;4177546;28;20052;-88
2021/07/04 07:31:05;;;;;;;43.95;35.70;;;21.30;99.90;;;;;;4165485;28;20377;-87
2021/07/04 07:33:11;;;;;;;41.20;33.67;;;21.60;99.90;;;;;;4164486;28;20444;-87
2021/07/04 07:35:18;;;;;;;41.72;33.25;;;21.80;99.90;;;;;;4165448;28;20038;-89
2021/07/04 07:37:27;;;;;;;41.17;34.38;;;22.00;99.90;;;;;;4165009;28;20504;-88
2021/07/04 07:39:32;;;;;;;40.28;31.80;;;22.20;99.90;;;;;;4167935;28;20026;-88
2021/07/04 07:41:41;;;;;;;40.67;34.88;;;22.30;99.90;;;;;;4166224;28;20516;-88
2021/07/04 07:43:44;;;;;;;43.65;35.58;;;22.30;99.90;;;;;;4164927;28;20453;-88
2021/07/04 07:45:46;;;;;;;;;;;22.30;99.90;;;;;;4169636;28;20032;-88
2021/07/04 07:47:47;;;;;;;40.80;32.20;;;22.30;99.90;;;;;;4162546;28;19909;-87
2021/07/04 07:50:01;;;;;;;40.95;33.55;;;22.30;99.90;;;;;;4164772;28;20048;-89
2021/07/04 07:52:10;;;;;;;38.83;32.03;;;22.40;99.90;;;;;;4165452;28;20033;-87
2021/07/04 07:54:11;;;;;;;41.17;35.05;;;22.50;99.90;;;;;;4165610;28;20026;-89
2021/07/04 07:56:12;;;;;;;45.53;35.33;;;22.40;99.90;;;;;;4165901;28;20507;-89
2021/07/04 07:58:33;;;;;;;36.88;32.85;;;22.30;99.90;;;;;;4166556;28;20029;-89
2021/07/04 08:00:43;;;;;;;32.28;28.38;;;22.20;99.90;;;;;;4158324;28;20037;-88
2021/07/04 08:02:50;;;;;;;33.33;27.17;;;22.50;99.90;;;;;;4155833;28;20091;-86
2021/07/04 08:04:51;;;;;;;33.03;28.60;;;22.80;99.90;;;;;;4139416;28;20374;-88
2021/07/04 08:06:54;;;;;;;31.95;28.42;;;23.10;99.90;;;;;;4142665;28;20088;-88
2021/07/04 08:08:58;;;;;;;;;;;23.40;99.90;;;;;;4143858;28;20037;-92
2021/07/04 08:11:08;;;;;;;29.63;25.25;;;23.40;99.90;;;;;;4163601;28;20015;-89
2021/07/04 08:13:11;;;;;;;24.05;21.52;;;23.40;99.90;;;;;;4160620;28;20041;-89
2021/07/04 08:15:17;;;;;;;;;;;23.30;99.90;;;;;;4165130;28;20765;-92
2021/07/04 08:17:35;;;;;;;25.25;22.60;;;23.30;99.90;;;;;;4165419;28;19909;-92
2021/07/04 08:19:50;;;;;;;23.33;20.85;;;23.20;99.90;;;;;;4164221;28;20041;-92
2021/07/04 08:22:06;;;;;;;24.95;22.35;;;23.40;99.90;;;;;;4140763;28;20088;-90
2021/07/04 08:24:44;;;;;;;25.58;22.75;;;23.70;99.90;;;;;;4133487;28;20045;-91
2021/07/04 08:26:54;;;;;;;24.67;21.17;;;23.50;99.90;;;;;;4165002;28;20870;-89
2021/07/04 08:29:02;;;;;;;20.08;17.73;;;23.40;99.90;;;;;;4151250;28;20040;-91
2021/07/04 08:31:03;;;;;;;19.50;17.50;;;23.50;99.90;;;;;;4163338;28;20025;-88
2021/07/04 08:33:40;;;;;;;;;;;;;;;;;;;;;
2021/07/04 08:35:52;;;;;;;17.92;15.45;;;23.60;99.90;;;;;;4158376;28;20040;-92
2021/07/04 08:38:12;;;;;;;20.48;16.95;;;24.20;99.90;;;;;;4164208;28;20030;-90
2021/07/04 08:40:14;;;;;;;19.75;17.65;;;24.30;99.90;;;;;;4154215;28;20475;-90
2021/07/04 08:42:18;;;;;;;20.33;18.15;;;24.10;99.90;;;;;;4164160;28;20026;-93
2021/07/04 08:44:25;;;;;;;19.73;17.17;;;24.30;99.90;;;;;;4166657;28;20101;-90
2021/07/04 08:46:45;;;;;;;18.83;16.83;;;24.40;99.90;;;;;;4164490;28;20033;-87
2021/07/04 08:48:48;;;;;;;16.73;14.93;;;24.10;99.90;;;;;;4154700;28;20041;-89
2021/07/04 08:51:09;;;;;;;19.88;17.13;;;23.80;99.90;;;;;;4150011;28;20022;-90
2021/07/04 08:53:12;;;;;;;20.73;18.05;;;23.70;99.90;;;;;;4133741;28;20042;-93
2021/07/04 08:55:26;;;;;;;17.38;15.68;;;23.20;99.90;;;;;;4167332;28;20080;-90
2021/07/04 08:57:44;;;;;;;16.02;14.43;;;23.30;99.90;;;;;;4164451;28;20029;-92
2021/07/04 08:59:53;;;;;;;18.38;15.95;;;23.40;99.90;;;;;;4164727;28;20076;-93
2021/07/04 09:02:14;;;;;;;18.20;16.00;;;23.70;99.90;;;;;;4163721;28;20041;-93
2021/07/04 09:04:32;;;;;;;16.85;15.20;;;24.20;99.90;;;;;;4154744;28;20018;-90
2021/07/04 09:06:53;;;;;;;15.93;14.27;;;24.20;99.90;;;;;;4162805;28;20515;-93
2021/07/04 09:09:33;;;;;;;16.42;14.70;;;;;;;;;;4161863;28;20084;-87
2021/07/04 09:11:56;;;;;;;14.15;12.23;;;24.60;99.90;;;;;;4124606;28;20417;-89
2021/07/04 09:14:06;;;;;;;14.05;12.65;;;25.00;99.90;;;;;;4161451;28;20095;-92
2021/07/04 09:16:27;;;;;;;14.15;12.75;;;25.10;99.90;;;;;;4161233;28;20025;-85
2021/07/04 09:18:28;;;;;;;13.98;12.55;;;25.30;99.90;;;;;;4161216;28;20528;-85
2021/07/04 09:20:28;;;;;;;13.10;11.65;;;25.70;99.90;;;;;;4163612;28;20034;-82
2021/07/04 09:22:37;;;;;;;12.70;11.40;;;26.10;99.90;;;;;;4161527;28;20441;-80
2021/07/04 09:24:43;;;;;;;12.65;10.77;;;26.20;99.90;;;;;;4163252;28;20076;-86
2021/07/04 09:26:55;;;;;;;13.07;11.77;;;26.30;99.90;;;;;;4163263;28;20120;-88
2021/07/04 09:28:56;;;;;;;11.55;10.43;;;26.70;99.90;;;;;;4164049;28;20037;-86
2021/07/04 09:31:01;;;;;;;12.98;11.45;;;27.20;99.90;;;;;;4163455;28;20060;-89
2021/07/04 09:33:20;;;;;;;11.80;10.35;;;27.60;99.90;;;;;;4179605;28;20029;-89
2021/07/04 09:35:21;;;;;;;11.57;10.45;;;27.80;99.90;;;;;;4163946;28;20033;-88
2021/07/04 09:37:36;;;;;;;12.65;11.13;;;28.00;99.90;;;;;;4163373;28;20564;-88
2021/07/04 09:39:45;;;;;;;12.02;10.85;;;27.40;99.90;;;;;;4179133;28;20118;-85
2021/07/04 09:42:06;;;;;;;14.13;12.70;;;26.70;99.90;;;;;;4164806;28;20502;-83
2021/07/04 09:44:24;;;;;;;12.65;11.35;;;26.20;99.90;;;;;;4160498;28;20030;-83
2021/07/04 09:46:25;;;;;;;14.43;12.23;;;25.90;99.90;;;;;;4162927;28;20152;-85
2021/07/04 09:48:29;;;;;;;14.38;12.77;;;25.60;99.90;;;;;;4163060;28;20029;-86
2021/07/04 09:50:36;;;;;;;14.98;13.48;;;25.80;99.90;;;;;;4159656;28;20051;-87
2021/07/04 09:52:39;;;;;;;15.13;13.35;;;26.20;99.90;;;;;;4165013;28;20029;-86
2021/07/04 09:55:03;;;;;;;14.35;12.07;;;26.20;99.90;;;;;;4162285;28;20099;-85
2021/07/04 09:57:06;;;;;;;13.95;12.63;;;26.60;99.90;;;;;;4160526;28;20025;-85
2021/07/04 09:59:21;;;;;;;14.90;13.32;;;26.60;99.90;;;;;;4162280;28;20084;-83
2021/07/04 10:01:39;;;;;;;15.45;12.75;;;26.50;99.90;;;;;;4176536;28;20040;-84
2021/07/04 10:03:45;;;;;;;13.90;11.98;;;26.20;99.90;;;;;;4161621;28;20472;-84
2021/07/04 10:05:55;;;;;;;11.98;10.77;;;26.60;99.90;;;;;;4162788;28;20040;-83
2021/07/04 10:07:56;;;;;;;13.73;11.60;;;26.80;99.90;;;;;;4164008;28;20034;-85
2021/07/04 10:09:57;;;;;;;11.27;10.15;;;26.80;99.90;;;;;;4162610;28;20342;-84
2021/07/04 10:12:01;;;;;;;12.00;10.80;;;26.80;99.90;;;;;;4162812;28;20067;-83
2021/07/04 10:14:02;;;;;;;11.93;10.63;;;26.50;99.90;;;;;;4162843;28;20025;-85
2021/07/04 10:16:06;;;;;;;12.00;10.80;;;26.40;99.90;;;;;;4163119;28;20026;-85
2021/07/04 10:18:16;;;;;;;14.00;12.60;;;26.00;99.90;;;;;;4158647;28;20026;-84
2021/07/04 10:20:18;;;;;;;13.05;11.48;;;25.90;99.90;;;;;;4159345;28;20045;-86
2021/07/04 10:22:20;;;;;;;14.55;12.93;;;25.90;99.90;;;;;;4162395;28;20655;-87
2021/07/04 10:24:21;;;;;;;13.88;12.20;;;25.70;99.90;;;;;;4167083;28;20681;-89
2021/07/04 10:26:38;;;;;;;13.23;11.90;;;25.60;99.90;;;;;;4167826;28;20101;-87
2021/07/04 10:28:41;;;;;;;13.43;12.05;;;26.00;99.90;;;;;;4167061;28;20037;-84
2021/07/04 10:30:42;;;;;;;13.52;11.73;;;26.40;99.90;;;;;;4162357;28;20028;-85
2021/07/04 10:33:22;;;;;;;16.70;13.55;;;27.30;99.90;;;;;;4166068;28;20022;-84